TimeMDT,TemperatureF,Dew PointF,Humidity,Sea Level PressureIn,VisibilityMPH,Wind Direction,Wind SpeedMPH,Gust SpeedMPH,PrecipitationIn,Events,Conditions,WindDirDegrees,DateUTC
12:53 AM,45.0,36.0,71,30.24,10.0,SSW,8.1,-,N/A,,Clear,210,2012-10-14 06:53:00
1:53 AM,50.0,37.9,63,30.24,10.0,South,8.1,-,N/A,,Mostly Cloudy,170,2012-10-14 07:53:00
2:53 AM,50.0,37.9,63,30.23,10.0,SSW,12.7,-,N/A,,Mostly Cloudy,200,2012-10-14 08:53:00
3:53 AM,46.9,37.9,71,30.24,10.0,SSW,11.5,-,N/A,,Overcast,210,2012-10-14 09:53:00
4:53 AM,46.9,37.9,71,30.27,10.0,South,6.9,-,N/A,,Overcast,180,2012-10-14 10:53:00
5:53 AM,43.0,36.0,76,30.30,10.0,SSW,4.6,-,N/A,,Clear,210,2012-10-14 11:53:00
6:53 AM,44.1,37.0,76,30.31,10.0,South,4.6,-,N/A,,Clear,170,2012-10-14 12:53:00
7:53 AM,37.9,34.0,86,30.35,10.0,Calm,Calm,-,N/A,,Clear,0,2012-10-14 13:53:00
8:53 AM,45.0,37.0,74,30.34,10.0,SSE,3.5,-,N/A,,Clear,150,2012-10-14 14:53:00
9:53 AM,48.9,37.9,66,30.34,10.0,SW,10.4,-,N/A,,Clear,220,2012-10-14 15:53:00
10:53 AM,53.1,39.0,59,30.32,10.0,SW,11.5,-,N/A,,Clear,220,2012-10-14 16:53:00
11:53 AM,57.0,37.9,49,30.30,10.0,SW,17.3,-,N/A,,Clear,220,2012-10-14 17:53:00
12:53 PM,60.1,37.9,44,30.30,10.0,WSW,15.0,-,N/A,,Clear,240,2012-10-14 18:53:00
2:53 PM,64.0,37.0,37,30.21,10.0,SW,13.8,23.0,N/A,,Clear,220,2012-10-14 20:53:00
3:53 PM,64.9,37.0,36,30.19,10.0,SW,11.5,-,N/A,,Clear,230,2012-10-14 21:53:00
4:53 PM,64.9,35.1,33,30.17,10.0,SSW,13.8,-,N/A,,Clear,200,2012-10-14 22:53:00
5:53 PM,64.0,36.0,35,30.17,10.0,SW,10.4,-,N/A,,Clear,230,2012-10-14 23:53:00
6:53 PM,57.9,36.0,44,30.17,10.0,SW,5.8,-,N/A,,Clear,220,2012-10-15 00:53:00
7:53 PM,57.9,36.0,44,30.18,10.0,South,6.9,-,N/A,,Clear,170,2012-10-15 01:53:00
8:53 PM,59.0,35.1,41,30.15,10.0,South,11.5,-,N/A,,Clear,190,2012-10-15 02:53:00
9:53 PM,57.0,37.0,47,30.14,10.0,South,9.2,-,N/A,,Clear,180,2012-10-15 03:53:00
10:53 PM,54.0,37.0,53,30.12,10.0,South,8.1,-,N/A,,Clear,180,2012-10-15 04:53:00
11:53 PM,57.0,36.0,45,30.09,10.0,South,15.0,-,N/A,,Clear,180,2012-10-15 05:53:00